KCNO/CNO METAR and TAF weather

Enter ICAO airport designator
Station Type Date Time Source
KCNO METAR 2022/01/29 01:53 UTC NOAA

KCNO 290153Z 09017KT 10SM CLR 18/M16 A3019 RMK AO2 SLP220 T01831161


Station Type Date Time Source
KCNO Decoded METAR 2022/01/29 01:53 UTC NOAA

CHINO AIRPORT, CA, United States (KCNO) 33-58N 117-38W 207M
Jan 28, 2022 - 08:53 PM EST / 2022.01.29 0153 UTC
Wind: from the E (090 degrees) at 20 MPH (17 KT):0
Visibility: 10 mile(s):0
Sky conditions: clear
Temperature: 64.9 F (18.3 C)
Dew Point: 3.0 F (-16.1 C)
Relative Humidity: 8%
Pressure (altimeter): 30.19 in. Hg (1022 hPa)
ob: KCNO 290153Z 09017KT 10SM CLR 18/M16 A3019 RMK AO2 SLP220 T01831161
cycle: 2

Station Type Date Time Source
KCNO TAF UTC NOAA

Error!

Example: see airport list